sensor_id;sensor_type;location;lat;lon;timestamp;P1;durP1;ratioP1;P2;durP2;ratioP2
84019;SDS011;74102;49.084;13.694;2023-11-21T00:00:09;1.60;;;0.40;;
84019;SDS011;74102;49.084;13.694;2023-11-21T00:02:37;3.10;;;1.33;;
84019;SDS011;74102;49.084;13.694;2023-11-21T00:05:05;1.95;;;0.70;;
84019;SDS011;74102;49.084;13.694;2023-11-21T00:07:33;1.55;;;0.60;;
84019;SDS011;74102;49.084;13.694;2023-11-21T00:09:59;0.93;;;0.38;;
84019;SDS011;74102;49.084;13.694;2023-11-21T00:12:24;1.83;;;0.47;;
84019;SDS011;74102;49.084;13.694;2023-11-21T00:14:49;1.02;;;0.47;;
84019;SDS011;74102;49.084;13.694;2023-11-21T00:17:15;0.68;;;0.43;;
84019;SDS011;74102;49.084;13.694;2023-11-21T00:19:40;0.75;;;0.43;;
84019;SDS011;74102;49.084;13.694;2023-11-21T00:22:07;1.67;;;0.60;;
84019;SDS011;74102;49.084;13.694;2023-11-21T00:24:34;0.68;;;0.30;;
84019;SDS011;74102;49.084;13.694;2023-11-21T00:26:59;1.40;;;0.50;;
84019;SDS011;74102;49.084;13.694;2023-11-21T00:29:25;2.65;;;0.90;;
84019;SDS011;74102;49.084;13.694;2023-11-21T00:31:50;4.80;;;1.50;;
84019;SDS011;74102;49.084;13.694;2023-11-21T00:34:16;3.38;;;1.25;;
84019;SDS011;74102;49.084;13.694;2023-11-21T00:36:41;4.38;;;1.70;;
84019;SDS011;74102;49.084;13.694;2023-11-21T00:39:07;5.20;;;1.75;;
84019;SDS011;74102;49.084;13.694;2023-11-21T00:41:32;4.40;;;1.52;;
84019;SDS011;74102;49.084;13.694;2023-11-21T00:43:58;4.95;;;1.83;;
84019;SDS011;74102;49.084;13.694;2023-11-21T00:46:24;5.32;;;2.03;;
84019;SDS011;74102;49.084;13.694;2023-11-21T00:48:52;4.63;;;1.90;;
84019;SDS011;74102;49.084;13.694;2023-11-21T00:51:19;3.95;;;1.33;;
84019;SDS011;74102;49.084;13.694;2023-11-21T00:53:44;4.78;;;1.88;;
84019;SDS011;74102;49.084;13.694;2023-11-21T00:56:10;3.28;;;1.27;;
84019;SDS011;74102;49.084;13.694;2023-11-21T00:58:35;4.03;;;1.45;;
84019;SDS011;74102;49.084;13.694;2023-11-21T01:01:00;2.03;;;0.80;;
84019;SDS011;74102;49.084;13.694;2023-11-21T01:03:26;2.40;;;0.82;;
84019;SDS011;74102;49.084;13.694;2023-11-21T01:05:51;4.20;;;1.60;;
84019;SDS011;74102;49.084;13.694;2023-11-21T01:08:17;3.00;;;1.02;;
84019;SDS011;74102;49.084;13.694;2023-11-21T01:10:42;4.25;;;1.00;;
84019;SDS011;74102;49.084;13.694;2023-11-21T01:13:07;3.03;;;0.93;;
84019;SDS011;74102;49.084;13.694;2023-11-21T01:15:33;4.05;;;1.10;;
84019;SDS011;74102;49.084;13.694;2023-11-21T01:17:59;3.03;;;1.10;;
84019;SDS011;74102;49.084;13.694;2023-11-21T01:20:24;2.15;;;0.90;;
84019;SDS011;74102;49.084;13.694;2023-11-21T01:22:50;1.08;;;0.50;;
84019;SDS011;74102;49.084;13.694;2023-11-21T01:25:15;2.80;;;1.05;;
84019;SDS011;74102;49.084;13.694;2023-11-21T01:27:41;2.47;;;1.10;;
84019;SDS011;74102;49.084;13.694;2023-11-21T01:30:08;1.30;;;0.50;;
84019;SDS011;74102;49.084;13.694;2023-11-21T01:32:36;1.20;;;0.50;;
84019;SDS011;74102;49.084;13.694;2023-11-21T01:35:02;2.35;;;0.70;;
84019;SDS011;74102;49.084;13.694;2023-11-21T01:37:30;2.65;;;0.90;;
84019;SDS011;74102;49.084;13.694;2023-11-21T01:39:55;2.92;;;0.93;;
84019;SDS011;74102;49.084;13.694;2023-11-21T01:42:21;4.50;;;1.17;;
84019;SDS011;74102;49.084;13.694;2023-11-21T01:44:46;6.10;;;1.73;;
84019;SDS011;74102;49.084;13.694;2023-11-21T01:47:12;1.52;;;0.60;;
84019;SDS011;74102;49.084;13.694;2023-11-21T01:49:39;2.10;;;0.60;;
84019;SDS011;74102;49.084;13.694;2023-11-21T01:52:04;1.65;;;0.60;;
84019;SDS011;74102;49.084;13.694;2023-11-21T01:54:31;1.55;;;0.50;;
84019;SDS011;74102;49.084;13.694;2023-11-21T01:56:58;1.20;;;0.50;;
84019;SDS011;74102;49.084;13.694;2023-11-21T01:59:28;1.25;;;0.50;;
84019;SDS011;74102;49.084;13.694;2023-11-21T02:02:00;1.23;;;0.60;;
84019;SDS011;74102;49.084;13.694;2023-11-21T02:04:25;2.97;;;1.00;;
84019;SDS011;74102;49.084;13.694;2023-11-21T02:06:51;3.97;;;1.17;;
84019;SDS011;74102;49.084;13.694;2023-11-21T02:09:16;1.48;;;0.60;;
84019;SDS011;74102;49.084;13.694;2023-11-21T02:11:43;3.00;;;0.75;;
84019;SDS011;74102;49.084;13.694;2023-11-21T02:14:09;2.10;;;0.75;;
84019;SDS011;74102;49.084;13.694;2023-11-21T02:16:34;4.20;;;1.27;;
84019;SDS011;74102;49.084;13.694;2023-11-21T02:19:01;3.25;;;1.10;;
84019;SDS011;74102;49.084;13.694;2023-11-21T02:21:28;2.35;;;0.90;;
84019;SDS011;74102;49.084;13.694;2023-11-21T02:23:55;3.10;;;0.90;;
84019;SDS011;74102;49.084;13.694;2023-11-21T02:26:21;2.67;;;0.80;;
84019;SDS011;74102;49.084;13.694;2023-11-21T02:28:46;2.10;;;0.63;;
84019;SDS011;74102;49.084;13.694;2023-11-21T02:31:11;1.33;;;0.60;;
84019;SDS011;74102;49.084;13.694;2023-11-21T02:33:37;1.38;;;0.60;;
84019;SDS011;74102;49.084;13.694;2023-11-21T02:36:03;1.85;;;0.60;;
84019;SDS011;74102;49.084;13.694;2023-11-21T02:38:28;1.27;;;0.60;;
84019;SDS011;74102;49.084;13.694;2023-11-21T02:40:54;1.80;;;0.60;;
84019;SDS011;74102;49.084;13.694;2023-11-21T02:43:20;2.40;;;0.73;;
84019;SDS011;74102;49.084;13.694;2023-11-21T02:45:46;1.73;;;0.63;;
84019;SDS011;74102;49.084;13.694;2023-11-21T02:48:11;1.58;;;0.57;;
84019;SDS011;74102;49.084;13.694;2023-11-21T02:50:36;1.27;;;0.50;;
84019;SDS011;74102;49.084;13.694;2023-11-21T02:53:02;1.65;;;0.68;;
84019;SDS011;74102;49.084;13.694;2023-11-21T02:55:30;1.75;;;0.70;;
84019;SDS011;74102;49.084;13.694;2023-11-21T02:57:59;1.75;;;0.65;;
84019;SDS011;74102;49.084;13.694;2023-11-21T03:00:25;1.17;;;0.52;;
84019;SDS011;74102;49.084;13.694;2023-11-21T03:02:50;2.55;;;0.98;;
84019;SDS011;74102;49.084;13.694;2023-11-21T03:05:16;2.50;;;0.88;;
84019;SDS011;74102;49.084;13.694;2023-11-21T03:07:41;5.80;;;1.60;;
84019;SDS011;74102;49.084;13.694;2023-11-21T03:10:07;5.10;;;1.33;;
84019;SDS011;74102;49.084;13.694;2023-11-21T03:12:37;3.65;;;1.10;;
84019;SDS011;74102;49.084;13.694;2023-11-21T03:15:03;3.92;;;1.00;;
84019;SDS011;74102;49.084;13.694;2023-11-21T03:17:32;3.00;;;0.90;;
84019;SDS011;74102;49.084;13.694;2023-11-21T03:19:59;3.72;;;0.88;;
84019;SDS011;74102;49.084;13.694;2023-11-21T03:22:25;2.10;;;0.75;;
84019;SDS011;74102;49.084;13.694;2023-11-21T03:24:51;2.03;;;0.63;;
84019;SDS011;74102;49.084;13.694;2023-11-21T03:27:17;1.50;;;0.70;;
84019;SDS011;74102;49.084;13.694;2023-11-21T03:29:42;1.27;;;0.60;;
84019;SDS011;74102;49.084;13.694;2023-11-21T03:32:08;3.33;;;1.27;;
84019;SDS011;74102;49.084;13.694;2023-11-21T03:34:34;3.08;;;0.90;;
84019;SDS011;74102;49.084;13.694;2023-11-21T03:36:59;1.92;;;0.65;;
84019;SDS011;74102;49.084;13.694;2023-11-21T03:39:25;1.10;;;0.40;;
84019;SDS011;74102;49.084;13.694;2023-11-21T03:41:50;1.30;;;0.47;;
84019;SDS011;74102;49.084;13.694;2023-11-21T03:44:17;3.58;;;0.80;;
84019;SDS011;74102;49.084;13.694;2023-11-21T03:46:43;1.83;;;0.70;;
84019;SDS011;74102;49.084;13.694;2023-11-21T03:49:09;1.25;;;0.50;;
84019;SDS011;74102;49.084;13.694;2023-11-21T03:51:35;3.25;;;1.23;;
84019;SDS011;74102;49.084;13.694;2023-11-21T03:54:01;3.35;;;1.48;;
84019;SDS011;74102;49.084;13.694;2023-11-21T03:56:27;3.53;;;0.90;;
84019;SDS011;74102;49.084;13.694;2023-11-21T03:58:52;1.70;;;0.70;;
84019;SDS011;74102;49.084;13.694;2023-11-21T04:01:21;1.52;;;0.50;;
84019;SDS011;74102;49.084;13.694;2023-11-21T04:03:47;1.63;;;0.60;;
84019;SDS011;74102;49.084;13.694;2023-11-21T04:06:12;1.92;;;0.63;;
84019;SDS011;74102;49.084;13.694;2023-11-21T04:08:38;1.63;;;0.60;;
84019;SDS011;74102;49.084;13.694;2023-11-21T04:11:03;0.93;;;0.52;;
84019;SDS011;74102;49.084;13.694;2023-11-21T04:13:29;1.65;;;0.60;;
84019;SDS011;74102;49.084;13.694;2023-11-21T04:15:55;2.88;;;1.00;;
84019;SDS011;74102;49.084;13.694;2023-11-21T04:18:21;7.93;;;2.03;;
84019;SDS011;74102;49.084;13.694;2023-11-21T04:20:48;3.72;;;0.93;;
84019;SDS011;74102;49.084;13.694;2023-11-21T04:23:14;6.47;;;1.48;;
84019;SDS011;74102;49.084;13.694;2023-11-21T04:25:40;3.45;;;1.02;;
84019;SDS011;74102;49.084;13.694;2023-11-21T04:28:05;4.22;;;1.40;;
84019;SDS011;74102;49.084;13.694;2023-11-21T04:30:31;2.90;;;0.98;;
84019;SDS011;74102;49.084;13.694;2023-11-21T04:32:57;2.33;;;0.80;;
84019;SDS011;74102;49.084;13.694;2023-11-21T04:35:23;1.98;;;0.80;;
84019;SDS011;74102;49.084;13.694;2023-11-21T04:37:48;3.13;;;0.80;;
84019;SDS011;74102;49.084;13.694;2023-11-21T04:40:16;1.70;;;0.57;;
84019;SDS011;74102;49.084;13.694;2023-11-21T04:42:41;3.03;;;0.90;;
84019;SDS011;74102;49.084;13.694;2023-11-21T04:45:07;3.60;;;0.80;;
84019;SDS011;74102;49.084;13.694;2023-11-21T04:47:37;3.17;;;0.90;;
84019;SDS011;74102;49.084;13.694;2023-11-21T04:50:03;3.78;;;1.20;;
84019;SDS011;74102;49.084;13.694;2023-11-21T04:52:29;2.72;;;0.93;;
84019;SDS011;74102;49.084;13.694;2023-11-21T04:54:55;2.60;;;0.90;;
84019;SDS011;74102;49.084;13.694;2023-11-21T04:57:22;2.60;;;0.98;;
84019;SDS011;74102;49.084;13.694;2023-11-21T04:59:48;3.13;;;1.17;;
84019;SDS011;74102;49.084;13.694;2023-11-21T05:02:14;3.50;;;0.70;;
84019;SDS011;74102;49.084;13.694;2023-11-21T05:04:39;3.28;;;1.10;;
84019;SDS011;74102;49.084;13.694;2023-11-21T05:07:05;5.07;;;1.77;;
84019;SDS011;74102;49.084;13.694;2023-11-21T05:09:30;7.22;;;2.80;;
84019;SDS011;74102;49.084;13.694;2023-11-21T05:11:57;6.72;;;3.72;;
84019;SDS011;74102;49.084;13.694;2023-11-21T05:14:23;6.75;;;3.47;;
84019;SDS011;74102;49.084;13.694;2023-11-21T05:16:48;7.15;;;3.88;;
84019;SDS011;74102;49.084;13.694;2023-11-21T05:19:16;4.82;;;2.40;;
84019;SDS011;74102;49.084;13.694;2023-11-21T05:21:41;5.45;;;2.65;;
84019;SDS011;74102;49.084;13.694;2023-11-21T05:24:06;7.53;;;3.83;;
84019;SDS011;74102;49.084;13.694;2023-11-21T05:26:32;6.57;;;2.92;;
84019;SDS011;74102;49.084;13.694;2023-11-21T05:28:57;8.75;;;4.13;;
84019;SDS011;74102;49.084;13.694;2023-11-21T05:31:23;10.70;;;4.18;;
84019;SDS011;74102;49.084;13.694;2023-11-21T05:33:48;8.82;;;4.03;;
84019;SDS011;74102;49.084;13.694;2023-11-21T05:36:13;7.57;;;3.40;;
84019;SDS011;74102;49.084;13.694;2023-11-21T05:38:39;6.50;;;3.28;;
84019;SDS011;74102;49.084;13.694;2023-11-21T05:41:06;7.57;;;3.58;;
84019;SDS011;74102;49.084;13.694;2023-11-21T05:43:32;8.57;;;3.83;;
84019;SDS011;74102;49.084;13.694;2023-11-21T05:46:00;7.95;;;3.88;;
84019;SDS011;74102;49.084;13.694;2023-11-21T05:48:25;6.35;;;2.90;;
84019;SDS011;74102;49.084;13.694;2023-11-21T05:50:51;5.85;;;2.47;;
84019;SDS011;74102;49.084;13.694;2023-11-21T05:53:17;4.50;;;1.92;;
84019;SDS011;74102;49.084;13.694;2023-11-21T05:55:43;6.35;;;2.92;;
84019;SDS011;74102;49.084;13.694;2023-11-21T05:58:08;5.90;;;2.58;;
84019;SDS011;74102;49.084;13.694;2023-11-21T06:00:34;6.13;;;2.45;;
84019;SDS011;74102;49.084;13.694;2023-11-21T06:02:59;9.77;;;4.55;;
84019;SDS011;74102;49.084;13.694;2023-11-21T06:05:25;8.77;;;4.32;;
84019;SDS011;74102;49.084;13.694;2023-11-21T06:07:52;8.43;;;4.28;;
84019;SDS011;74102;49.084;13.694;2023-11-21T06:10:19;15.77;;;5.30;;
84019;SDS011;74102;49.084;13.694;2023-11-21T06:13:01;18.08;;;5.97;;
84019;SDS011;74102;49.084;13.694;2023-11-21T06:15:29;11.70;;;4.63;;
84019;SDS011;74102;49.084;13.694;2023-11-21T06:17:54;11.95;;;4.40;;
84019;SDS011;74102;49.084;13.694;2023-11-21T06:20:20;5.63;;;2.25;;
84019;SDS011;74102;49.084;13.694;2023-11-21T06:22:47;4.70;;;1.67;;
84019;SDS011;74102;49.084;13.694;2023-11-21T06:25:13;3.30;;;1.20;;
84019;SDS011;74102;49.084;13.694;2023-11-21T06:27:40;8.98;;;2.95;;
84019;SDS011;74102;49.084;13.694;2023-11-21T06:30:10;15.15;;;6.18;;
84019;SDS011;74102;49.084;13.694;2023-11-21T06:32:36;13.25;;;5.55;;
84019;SDS011;74102;49.084;13.694;2023-11-21T06:35:05;4.78;;;2.20;;
84019;SDS011;74102;49.084;13.694;2023-11-21T06:37:31;4.97;;;2.70;;
84019;SDS011;74102;49.084;13.694;2023-11-21T06:39:57;4.93;;;2.35;;
84019;SDS011;74102;49.084;13.694;2023-11-21T06:42:25;5.45;;;2.10;;
84019;SDS011;74102;49.084;13.694;2023-11-21T06:44:54;5.72;;;2.88;;
84019;SDS011;74102;49.084;13.694;2023-11-21T06:47:22;15.23;;;4.70;;
84019;SDS011;74102;49.084;13.694;2023-11-21T06:49:54;18.42;;;5.22;;
84019;SDS011;74102;49.084;13.694;2023-11-21T06:52:20;15.27;;;5.25;;
84019;SDS011;74102;49.084;13.694;2023-11-21T06:54:45;10.95;;;3.63;;
84019;SDS011;74102;49.084;13.694;2023-11-21T06:57:12;14.80;;;6.95;;
84019;SDS011;74102;49.084;13.694;2023-11-21T06:59:38;12.00;;;5.18;;
84019;SDS011;74102;49.084;13.694;2023-11-21T07:02:05;8.98;;;4.35;;
84019;SDS011;74102;49.084;13.694;2023-11-21T07:04:34;11.18;;;4.70;;
84019;SDS011;74102;49.084;13.694;2023-11-21T07:07:01;9.48;;;3.85;;
84019;SDS011;74102;49.084;13.694;2023-11-21T07:09:28;13.07;;;4.63;;
84019;SDS011;74102;49.084;13.694;2023-11-21T07:11:54;13.63;;;5.05;;
84019;SDS011;74102;49.084;13.694;2023-11-21T07:14:20;17.27;;;5.50;;
84019;SDS011;74102;49.084;13.694;2023-11-21T07:16:46;15.38;;;4.65;;
84019;SDS011;74102;49.084;13.694;2023-11-21T07:19:18;14.13;;;5.05;;
84019;SDS011;74102;49.084;13.694;2023-11-21T07:21:44;16.05;;;6.53;;
84019;SDS011;74102;49.084;13.694;2023-11-21T07:24:10;8.77;;;4.07;;
84019;SDS011;74102;49.084;13.694;2023-11-21T07:26:36;14.00;;;5.93;;
84019;SDS011;74102;49.084;13.694;2023-11-21T07:29:02;37.28;;;10.82;;
84019;SDS011;74102;49.084;13.694;2023-11-21T07:31:28;36.42;;;11.63;;
84019;SDS011;74102;49.084;13.694;2023-11-21T07:33:54;33.67;;;10.60;;
84019;SDS011;74102;49.084;13.694;2023-11-21T07:36:25;29.13;;;10.40;;
84019;SDS011;74102;49.084;13.694;2023-11-21T07:38:51;24.48;;;8.90;;
84019;SDS011;74102;49.084;13.694;2023-11-21T07:41:17;23.38;;;8.50;;
84019;SDS011;74102;49.084;13.694;2023-11-21T07:43:43;11.82;;;5.05;;
84019;SDS011;74102;49.084;13.694;2023-11-21T07:46:10;10.20;;;4.90;;
84019;SDS011;74102;49.084;13.694;2023-11-21T07:48:37;10.23;;;4.88;;
84019;SDS011;74102;49.084;13.694;2023-11-21T07:51:03;9.52;;;4.32;;
84019;SDS011;74102;49.084;13.694;2023-11-21T07:53:29;6.97;;;3.50;;
84019;SDS011;74102;49.084;13.694;2023-11-21T07:55:55;6.80;;;3.13;;
84019;SDS011;74102;49.084;13.694;2023-11-21T07:58:21;6.13;;;3.08;;
84019;SDS011;74102;49.084;13.694;2023-11-21T08:00:46;5.93;;;3.20;;
84019;SDS011;74102;49.084;13.694;2023-11-21T08:05:48;5.85;;;2.65;;
84019;SDS011;74102;49.084;13.694;2023-11-21T08:08:13;18.83;;;6.75;;
84019;SDS011;74102;49.084;13.694;2023-11-21T08:10:39;19.98;;;7.65;;
84019;SDS011;74102;49.084;13.694;2023-11-21T08:15:42;14.60;;;5.60;;
84019;SDS011;74102;49.084;13.694;2023-11-21T08:18:11;9.55;;;4.28;;
84019;SDS011;74102;49.084;13.694;2023-11-21T08:20:55;6.85;;;2.90;;
84019;SDS011;74102;49.084;13.694;2023-11-21T08:23:35;9.13;;;3.47;;
84019;SDS011;74102;49.084;13.694;2023-11-21T08:26:01;3.08;;;1.23;;
84019;SDS011;74102;49.084;13.694;2023-11-21T08:28:28;3.95;;;1.73;;
84019;SDS011;74102;49.084;13.694;2023-11-21T08:30:53;6.85;;;2.35;;
84019;SDS011;74102;49.084;13.694;2023-11-21T08:33:22;52.40;;;15.80;;
84019;SDS011;74102;49.084;13.694;2023-11-21T08:35:47;33.45;;;9.15;;
84019;SDS011;74102;49.084;13.694;2023-11-21T08:38:13;5.60;;;2.58;;
84019;SDS011;74102;49.084;13.694;2023-11-21T08:40:38;4.43;;;1.60;;
84019;SDS011;74102;49.084;13.694;2023-11-21T08:43:04;3.90;;;1.38;;
84019;SDS011;74102;49.084;13.694;2023-11-21T08:45:30;3.67;;;1.55;;
84019;SDS011;74102;49.084;13.694;2023-11-21T08:47:58;3.20;;;1.50;;
84019;SDS011;74102;49.084;13.694;2023-11-21T08:50:24;5.50;;;2.42;;
84019;SDS011;74102;49.084;13.694;2023-11-21T08:52:49;5.05;;;1.90;;
84019;SDS011;74102;49.084;13.694;2023-11-21T08:55:16;3.13;;;1.17;;
84019;SDS011;74102;49.084;13.694;2023-11-21T08:57:43;2.60;;;1.10;;
84019;SDS011;74102;49.084;13.694;2023-11-21T09:00:10;1.63;;;0.63;;
84019;SDS011;74102;49.084;13.694;2023-11-21T09:02:39;1.00;;;0.45;;
84019;SDS011;74102;49.084;13.694;2023-11-21T09:05:08;3.20;;;1.13;;
84019;SDS011;74102;49.084;13.694;2023-11-21T09:07:34;1.55;;;0.73;;
84019;SDS011;74102;49.084;13.694;2023-11-21T09:10:00;2.00;;;0.60;;
84019;SDS011;74102;49.084;13.694;2023-11-21T09:12:26;3.60;;;1.30;;
84019;SDS011;74102;49.084;13.694;2023-11-21T09:14:52;1.85;;;0.68;;
84019;SDS011;74102;49.084;13.694;2023-11-21T09:17:17;2.42;;;0.60;;
84019;SDS011;74102;49.084;13.694;2023-11-21T09:19:43;2.17;;;0.80;;
84019;SDS011;74102;49.084;13.694;2023-11-21T09:22:14;2.50;;;0.90;;
84019;SDS011;74102;49.084;13.694;2023-11-21T09:24:40;3.55;;;1.42;;
84019;SDS011;74102;49.084;13.694;2023-11-21T09:27:06;1.50;;;0.57;;
84019;SDS011;74102;49.084;13.694;2023-11-21T09:29:31;1.23;;;0.52;;
84019;SDS011;74102;49.084;13.694;2023-11-21T09:32:09;2.17;;;0.77;;
84019;SDS011;74102;49.084;13.694;2023-11-21T09:34:39;2.72;;;0.90;;
84019;SDS011;74102;49.084;13.694;2023-11-21T09:37:04;3.08;;;1.02;;
84019;SDS011;74102;49.084;13.694;2023-11-21T09:39:31;3.42;;;1.10;;
84019;SDS011;74102;49.084;13.694;2023-11-21T09:42:10;3.67;;;1.48;;
84019;SDS011;74102;49.084;13.694;2023-11-21T09:47:41;3.10;;;1.13;;
84019;SDS011;74102;49.084;13.694;2023-11-21T09:50:08;4.03;;;1.70;;
84019;SDS011;74102;49.084;13.694;2023-11-21T09:53:20;3.30;;;1.10;;
84019;SDS011;74102;49.084;13.694;2023-11-21T09:55:52;3.95;;;1.20;;
84019;SDS011;74102;49.084;13.694;2023-11-21T09:58:19;2.42;;;0.90;;
84019;SDS011;74102;49.084;13.694;2023-11-21T10:00:47;1.45;;;0.65;;
84019;SDS011;74102;49.084;13.694;2023-11-21T10:03:27;1.88;;;0.68;;
84019;SDS011;74102;49.084;13.694;2023-11-21T10:05:53;1.85;;;0.63;;
84019;SDS011;74102;49.084;13.694;2023-11-21T10:08:22;1.98;;;0.77;;
84019;SDS011;74102;49.084;13.694;2023-11-21T10:10:50;2.05;;;0.70;;
84019;SDS011;74102;49.084;13.694;2023-11-21T10:13:18;2.58;;;0.82;;
84019;SDS011;74102;49.084;13.694;2023-11-21T10:15:44;2.30;;;0.80;;
84019;SDS011;74102;49.084;13.694;2023-11-21T10:18:15;3.63;;;1.20;;
84019;SDS011;74102;49.084;13.694;2023-11-21T10:20:41;4.05;;;1.25;;
84019;SDS011;74102;49.084;13.694;2023-11-21T10:23:13;3.55;;;1.40;;
84019;SDS011;74102;49.084;13.694;2023-11-21T10:25:40;3.90;;;1.48;;
84019;SDS011;74102;49.084;13.694;2023-11-21T10:30:41;4.82;;;1.45;;
84019;SDS011;74102;49.084;13.694;2023-11-21T10:33:07;2.85;;;1.25;;
84019;SDS011;74102;49.084;13.694;2023-11-21T10:38:12;3.20;;;1.30;;
84019;SDS011;74102;49.084;13.694;2023-11-21T10:40:40;3.88;;;1.52;;
84019;SDS011;74102;49.084;13.694;2023-11-21T10:43:07;5.38;;;2.10;;
84019;SDS011;74102;49.084;13.694;2023-11-21T10:45:38;16.88;;;8.30;;
84019;SDS011;74102;49.084;13.694;2023-11-21T10:48:06;6.63;;;3.72;;
84019;SDS011;74102;49.084;13.694;2023-11-21T10:50:37;4.93;;;1.98;;
84019;SDS011;74102;49.084;13.694;2023-11-21T10:53:03;4.53;;;1.88;;
84019;SDS011;74102;49.084;13.694;2023-11-21T10:58:37;7.30;;;3.25;;
84019;SDS011;74102;49.084;13.694;2023-11-21T11:01:09;5.22;;;2.30;;
84019;SDS011;74102;49.084;13.694;2023-11-21T11:03:37;10.05;;;5.63;;
84019;SDS011;74102;49.084;13.694;2023-11-21T11:08:54;3.70;;;1.40;;
84019;SDS011;74102;49.084;13.694;2023-11-21T11:11:21;4.68;;;2.08;;
84019;SDS011;74102;49.084;13.694;2023-11-21T11:16:56;3.17;;;1.35;;
84019;SDS011;74102;49.084;13.694;2023-11-21T11:19:24;7.32;;;1.90;;
84019;SDS011;74102;49.084;13.694;2023-11-21T11:28:14;2.33;;;1.20;;
84019;SDS011;74102;49.084;13.694;2023-11-21T11:33:38;1.95;;;0.70;;
84019;SDS011;74102;49.084;13.694;2023-11-21T11:36:14;3.60;;;1.30;;
84019;SDS011;74102;49.084;13.694;2023-11-21T11:38:46;3.08;;;1.38;;
84019;SDS011;74102;49.084;13.694;2023-11-21T11:41:19;3.33;;;1.52;;
84019;SDS011;74102;49.084;13.694;2023-11-21T11:43:55;3.38;;;1.42;;
84019;SDS011;74102;49.084;13.694;2023-11-21T11:46:22;3.85;;;1.67;;
84019;SDS011;74102;49.084;13.694;2023-11-21T11:49:56;4.72;;;1.80;;
84019;SDS011;74102;49.084;13.694;2023-11-21T11:54:57;3.03;;;1.10;;
84019;SDS011;74102;49.084;13.694;2023-11-21T11:57:24;4.38;;;1.65;;
84019;SDS011;74102;49.084;13.694;2023-11-21T12:02:50;3.20;;;1.52;;
84019;SDS011;74102;49.084;13.694;2023-11-21T12:05:19;3.40;;;1.20;;
84019;SDS011;74102;49.084;13.694;2023-11-21T12:11:07;3.53;;;1.30;;
84019;SDS011;74102;49.084;13.694;2023-11-21T12:13:32;2.80;;;1.00;;
84019;SDS011;74102;49.084;13.694;2023-11-21T12:15:59;2.28;;;0.90;;
84019;SDS011;74102;49.084;13.694;2023-11-21T12:18:25;4.47;;;1.25;;
84019;SDS011;74102;49.084;13.694;2023-11-21T12:20:51;4.53;;;1.05;;
84019;SDS011;74102;49.084;13.694;2023-11-21T12:23:17;2.90;;;1.10;;
84019;SDS011;74102;49.084;13.694;2023-11-21T12:25:42;2.08;;;0.90;;
84019;SDS011;74102;49.084;13.694;2023-11-21T12:28:08;2.25;;;0.80;;
84019;SDS011;74102;49.084;13.694;2023-11-21T12:30:34;2.90;;;0.80;;
84019;SDS011;74102;49.084;13.694;2023-11-21T12:33:01;3.35;;;0.80;;
84019;SDS011;74102;49.084;13.694;2023-11-21T12:35:28;2.60;;;1.10;;
84019;SDS011;74102;49.084;13.694;2023-11-21T12:37:56;3.58;;;1.70;;
84019;SDS011;74102;49.084;13.694;2023-11-21T12:40:25;3.95;;;1.10;;
84019;SDS011;74102;49.084;13.694;2023-11-21T12:42:59;4.13;;;1.05;;
84019;SDS011;74102;49.084;13.694;2023-11-21T12:45:35;3.13;;;1.27;;
84019;SDS011;74102;49.084;13.694;2023-11-21T12:48:01;4.22;;;1.85;;
84019;SDS011;74102;49.084;13.694;2023-11-21T12:50:32;3.58;;;1.42;;
84019;SDS011;74102;49.084;13.694;2023-11-21T12:52:59;3.83;;;1.10;;
84019;SDS011;74102;49.084;13.694;2023-11-21T12:55:31;3.25;;;1.27;;
84019;SDS011;74102;49.084;13.694;2023-11-21T12:58:00;5.07;;;1.85;;
84019;SDS011;74102;49.084;13.694;2023-11-21T13:03:08;5.30;;;1.95;;
84019;SDS011;74102;49.084;13.694;2023-11-21T13:05:38;3.78;;;1.70;;
84019;SDS011;74102;49.084;13.694;2023-11-21T13:08:07;3.17;;;1.33;;
84019;SDS011;74102;49.084;13.694;2023-11-21T13:10:40;3.13;;;1.10;;
84019;SDS011;74102;49.084;13.694;2023-11-21T13:13:08;3.55;;;1.52;;
84019;SDS011;74102;49.084;13.694;2023-11-21T13:15:46;3.38;;;1.42;;
84019;SDS011;74102;49.084;13.694;2023-11-21T13:18:13;4.88;;;2.10;;
84019;SDS011;74102;49.084;13.694;2023-11-21T13:23:24;3.15;;;1.30;;
84019;SDS011;74102;49.084;13.694;2023-11-21T13:25:51;4.05;;;1.85;;
84019;SDS011;74102;49.084;13.694;2023-11-21T13:28:17;4.32;;;2.03;;
84019;SDS011;74102;49.084;13.694;2023-11-21T13:30:46;3.20;;;1.50;;
84019;SDS011;74102;49.084;13.694;2023-11-21T13:33:12;4.47;;;2.15;;
84019;SDS011;74102;49.084;13.694;2023-11-21T13:35:43;5.72;;;2.78;;
84019;SDS011;74102;49.084;13.694;2023-11-21T13:38:14;4.75;;;2.05;;
84019;SDS011;74102;49.084;13.694;2023-11-21T13:45:50;13.70;;;5.10;;
84019;SDS011;74102;49.084;13.694;2023-11-21T13:48:33;21.00;;;7.28;;
84019;SDS011;74102;49.084;13.694;2023-11-21T13:51:10;10.65;;;4.28;;
84019;SDS011;74102;49.084;13.694;2023-11-21T13:53:42;6.93;;;3.17;;
84019;SDS011;74102;49.084;13.694;2023-11-21T13:56:17;9.65;;;4.43;;
84019;SDS011;74102;49.084;13.694;2023-11-21T13:58:49;11.13;;;5.32;;
84019;SDS011;74102;49.084;13.694;2023-11-21T14:01:19;8.18;;;4.13;;
84019;SDS011;74102;49.084;13.694;2023-11-21T14:04:04;4.50;;;2.30;;
84019;SDS011;74102;49.084;13.694;2023-11-21T14:06:42;7.45;;;3.30;;
84019;SDS011;74102;49.084;13.694;2023-11-21T14:09:21;33.78;;;13.63;;
84019;SDS011;74102;49.084;13.694;2023-11-21T14:14:44;32.80;;;16.55;;
84019;SDS011;74102;49.084;13.694;2023-11-21T14:17:12;27.42;;;11.23;;
84019;SDS011;74102;49.084;13.694;2023-11-21T14:19:37;3.45;;;1.35;;
84019;SDS011;74102;49.084;13.694;2023-11-21T14:22:08;2.85;;;1.10;;
84019;SDS011;74102;49.084;13.694;2023-11-21T14:24:36;3.13;;;1.10;;
84019;SDS011;74102;49.084;13.694;2023-11-21T14:27:02;3.03;;;1.00;;
84019;SDS011;74102;49.084;13.694;2023-11-21T14:29:28;5.07;;;1.10;;
84019;SDS011;74102;49.084;13.694;2023-11-21T14:31:55;2.83;;;1.10;;
84019;SDS011;74102;49.084;13.694;2023-11-21T14:34:23;29.35;;;10.77;;
84019;SDS011;74102;49.084;13.694;2023-11-21T14:36:49;4.43;;;2.42;;
84019;SDS011;74102;49.084;13.694;2023-11-21T14:39:15;5.03;;;1.77;;
84019;SDS011;74102;49.084;13.694;2023-11-21T14:41:53;4.25;;;1.63;;
84019;SDS011;74102;49.084;13.694;2023-11-21T14:44:20;5.25;;;2.20;;
84019;SDS011;74102;49.084;13.694;2023-11-21T14:46:50;7.10;;;2.38;;
84019;SDS011;74102;49.084;13.694;2023-11-21T14:49:16;7.50;;;3.50;;
84019;SDS011;74102;49.084;13.694;2023-11-21T14:51:48;4.85;;;2.05;;
84019;SDS011;74102;49.084;13.694;2023-11-21T14:54:28;12.18;;;6.43;;
84019;SDS011;74102;49.084;13.694;2023-11-21T14:57:08;7.35;;;3.45;;
84019;SDS011;74102;49.084;13.694;2023-11-21T14:59:36;18.55;;;9.90;;
84019;SDS011;74102;49.084;13.694;2023-11-21T15:02:02;18.23;;;10.07;;
84019;SDS011;74102;49.084;13.694;2023-11-21T15:04:43;14.00;;;8.05;;
84019;SDS011;74102;49.084;13.694;2023-11-21T15:07:09;10.57;;;4.53;;
84019;SDS011;74102;49.084;13.694;2023-11-21T15:09:38;7.32;;;2.85;;
84019;SDS011;74102;49.084;13.694;2023-11-21T15:12:07;5.13;;;2.00;;
84019;SDS011;74102;49.084;13.694;2023-11-21T15:14:45;5.97;;;1.90;;
84019;SDS011;74102;49.084;13.694;2023-11-21T15:17:16;5.47;;;2.13;;
84019;SDS011;74102;49.084;13.694;2023-11-21T15:19:49;5.32;;;2.20;;
84019;SDS011;74102;49.084;13.694;2023-11-21T15:22:15;7.43;;;3.05;;
84019;SDS011;74102;49.084;13.694;2023-11-21T15:24:41;9.93;;;4.85;;
84019;SDS011;74102;49.084;13.694;2023-11-21T15:27:09;9.43;;;6.07;;
84019;SDS011;74102;49.084;13.694;2023-11-21T15:29:36;6.80;;;3.03;;